createdAt,value
2022-08-17T00:00:42.987Z,100269.13
2022-08-17T00:03:12.671Z,100267.06
2022-08-17T00:05:49.608Z,100268.25
2022-08-17T00:08:20.952Z,100275.88
2022-08-17T00:10:49.653Z,100270.31
2022-08-17T00:13:28.136Z,100266.75
2022-08-17T00:15:59.846Z,100267.16
2022-08-17T00:19:01.586Z,100261.59
2022-08-17T00:21:25.185Z,100262.84
2022-08-17T00:23:54.822Z,100260.63
2022-08-17T00:26:43.656Z,100270.13
2022-08-17T00:29:19.716Z,100264.38
2022-08-17T00:31:49.579Z,100259.69
2022-08-17T00:34:18.069Z,100261.19
2022-08-17T00:39:14.332Z,100253.44
2022-08-17T00:41:42.860Z,100245.28
2022-08-17T00:44:12.290Z,100245.09
2022-08-17T00:46:42.743Z,100250.91
2022-08-17T00:49:12.388Z,100252.13
2022-08-17T00:52:04.422Z,100237.59
2022-08-17T00:54:44.543Z,100234.53
2022-08-17T00:57:29.048Z,100233.31
2022-08-17T01:00:02.936Z,100232.00
2022-08-17T01:02:42.299Z,100228.56
2022-08-17T01:05:16.474Z,100226.72
2022-08-17T01:07:50.033Z,100227.97
2022-08-17T01:10:59.503Z,100237.41
2022-08-17T01:13:12.785Z,100228.63
2022-08-17T01:15:50.599Z,100230.25
2022-08-17T01:18:19.125Z,100237.03
2022-08-17T01:20:51.552Z,100239.16
2022-08-17T01:23:21.399Z,100238.75
2022-08-17T01:25:58.088Z,100240.41
2022-08-17T01:28:52.299Z,100242.50
2022-08-17T01:31:17.487Z,100240.63
2022-08-17T01:33:45.714Z,100243.31
2022-08-17T01:36:14.256Z,100241.84
2022-08-17T01:38:42.646Z,100241.25
2022-08-17T01:41:15.567Z,100240.41
2022-08-17T01:43:52.591Z,100229.34
2022-08-17T01:46:26.978Z,100233.25
2022-08-17T01:48:57.577Z,100231.22
2022-08-17T01:51:32.514Z,100238.19
2022-08-17T01:54:09.081Z,100245.97
2022-08-17T01:56:41.153Z,100244.97
2022-08-17T01:59:12.688Z,100259.56
2022-08-17T02:01:41.413Z,100269.25
2022-08-17T02:04:09.631Z,100265.19
2022-08-17T02:06:45.330Z,100275.06
2022-08-17T02:09:29.901Z,100292.88
2022-08-17T02:12:37.242Z,100288.97
2022-08-17T02:14:50.616Z,100279.91
2022-08-17T02:17:18.856Z,100283.19
2022-08-17T02:19:46.958Z,100283.97
2022-08-17T02:22:15.651Z,100291.53
2022-08-17T02:24:58.366Z,100289.28
2022-08-17T02:27:29.952Z,100273.69
2022-08-17T02:29:58.197Z,100284.34
2022-08-17T02:32:28.680Z,100290.03
2022-08-17T02:35:01.228Z,100292.69
2022-08-17T02:37:30.416Z,100294.59
2022-08-17T02:39:59.887Z,100289.50
2022-08-17T02:42:35.344Z,100283.94
2022-08-17T02:45:06.532Z,100287.59
2022-08-17T02:47:35.526Z,100289.88
2022-08-17T02:50:07.800Z,100296.84
2022-08-17T02:52:42.331Z,100291.94
2022-08-17T02:55:18.171Z,100287.81
2022-08-17T02:57:46.715Z,100293.28
2022-08-17T03:00:19.615Z,100293.06
2022-08-17T03:02:48.111Z,100290.00
2022-08-17T03:05:20.139Z,100285.53
2022-08-17T03:07:48.844Z,100285.72
2022-08-17T03:10:17.933Z,100287.38
2022-08-17T03:12:47.178Z,100291.47
2022-08-17T03:15:19.121Z,100283.50
2022-08-17T03:17:47.560Z,100288.94
2022-08-17T03:20:17.239Z,100289.78
2022-08-17T03:22:53.661Z,100291.66
2022-08-17T03:25:37.825Z,100291.22
2022-08-17T03:28:07.560Z,100290.81
2022-08-17T03:30:36.679Z,100297.56
2022-08-17T03:33:07.017Z,100298.78
2022-08-17T03:35:37.622Z,100285.25
2022-08-17T03:38:06.413Z,100282.38
2022-08-17T03:40:58.967Z,100282.19
2022-08-17T03:43:23.819Z,100270.91
2022-08-17T03:46:34.066Z,100266.59
2022-08-17T03:49:24.409Z,100271.94
2022-08-17T03:52:12.340Z,100266.00
2022-08-17T03:54:59.850Z,100250.06
2022-08-17T03:57:29.168Z,100251.50
2022-08-17T03:59:57.708Z,100246.38
2022-08-17T04:02:31.843Z,100249.03
2022-08-17T04:05:04.221Z,100243.94
2022-08-17T04:07:32.601Z,100243.53
2022-08-17T04:10:00.904Z,100242.88
2022-08-17T04:12:42.124Z,100250.69
2022-08-17T04:15:11.771Z,100254.97
2022-08-17T04:17:40.467Z,100264.03
2022-08-17T04:20:09.260Z,100264.25
2022-08-17T04:22:37.662Z,100271.41
2022-08-17T04:25:17.712Z,100276.72
2022-08-17T04:27:45.973Z,100280.59
2022-08-17T04:30:14.573Z,100279.81
2022-08-17T04:33:07.355Z,100283.69
2022-08-17T04:35:39.538Z,100277.34
2022-08-17T04:38:10.287Z,100273.25
2022-08-17T04:40:57.156Z,100272.03
2022-08-17T04:43:27.476Z,100274.47
2022-08-17T04:46:04.785Z,100281.03
2022-08-17T04:48:37.382Z,100283.06
2022-08-17T04:51:09.865Z,100279.00
2022-08-17T04:53:44.426Z,100288.00
2022-08-17T04:56:18.947Z,100288.19
2022-08-17T04:58:50.269Z,100289.00
2022-08-17T05:01:24.003Z,100276.13
2022-08-17T05:04:19.912Z,100287.38
2022-08-17T05:06:50.366Z,100283.88
2022-08-17T05:09:18.860Z,100282.81
2022-08-17T05:11:47.270Z,100294.88
2022-08-17T05:14:15.835Z,100303.25
2022-08-17T05:16:45.813Z,100308.16
2022-08-17T05:19:14.025Z,100325.19
2022-08-17T05:21:42.201Z,100329.66
2022-08-17T05:24:16.718Z,100335.56
2022-08-17T05:27:02.602Z,100327.19
2022-08-17T05:29:35.524Z,100339.69
2022-08-17T05:32:37.975Z,100349.75
2022-08-17T05:35:00.640Z,100364.28
2022-08-17T05:37:29.006Z,100368.38
2022-08-17T05:39:57.297Z,100369.56
2022-08-17T05:42:25.454Z,100369.72
2022-08-17T05:44:56.737Z,100367.22
2022-08-17T05:47:26.348Z,100360.00
2022-08-17T05:49:54.884Z,100355.59
2022-08-17T05:52:32.396Z,100362.69
2022-08-17T05:55:29.694Z,100372.19
2022-08-17T05:58:24.722Z,100363.22
2022-08-17T06:01:00.345Z,100369.88
2022-08-17T06:03:49.655Z,100374.53
2022-08-17T06:06:21.450Z,100379.94
2022-08-17T06:09:03.257Z,100379.22
2022-08-17T06:11:43.396Z,100383.03
2022-08-17T06:14:14.755Z,100396.09
2022-08-17T06:16:50.888Z,100394.47
2022-08-17T06:19:43.882Z,100393.06
2022-08-17T06:22:15.495Z,100400.50
2022-08-17T06:24:47.258Z,100393.63
2022-08-17T06:27:39.121Z,100399.59
2022-08-17T06:30:09.407Z,100408.00
2022-08-17T06:32:42.348Z,100397.94
2022-08-17T06:35:15.693Z,100391.91
2022-08-17T06:37:43.817Z,100397.84
2022-08-17T06:40:36.163Z,100396.66
2022-08-17T06:44:42.229Z,100410.25
2022-08-17T06:47:28.786Z,100421.34
2022-08-17T06:50:22.815Z,100410.34
2022-08-17T06:52:56.208Z,100408.47
2022-08-17T06:55:38.192Z,100415.75
2022-08-17T06:58:15.687Z,100402.84
2022-08-17T07:00:47.739Z,100387.44
2022-08-17T07:03:20.761Z,100401.78
2022-08-17T07:06:00.976Z,100411.38
2022-08-17T07:08:47.217Z,100401.06
2022-08-17T07:11:20.720Z,100400.75
2022-08-17T07:14:03.640Z,100401.22
2022-08-17T07:16:35.119Z,100390.53
2022-08-17T07:19:06.054Z,100379.75
2022-08-17T07:21:57.858Z,100373.81
2022-08-17T07:24:30.864Z,100391.16
2022-08-17T07:27:07.010Z,100388.16
2022-08-17T07:29:44.052Z,100377.53
2022-08-17T07:32:14.284Z,100376.47
2022-08-17T07:35:11.169Z,100375.88
2022-08-17T07:37:42.413Z,100372.97
2022-08-17T07:40:36.035Z,100369.53
2022-08-17T07:43:23.082Z,100374.38
2022-08-17T07:46:13.207Z,100361.38
2022-08-17T07:48:43.435Z,100355.31
2022-08-17T07:51:28.871Z,100344.34
2022-08-17T07:54:14.168Z,100354.28
2022-08-17T07:56:52.442Z,100352.75
2022-08-17T07:59:33.824Z,100356.25
2022-08-17T08:02:08.089Z,100354.84
2022-08-17T08:04:59.595Z,100346.47
2022-08-17T08:07:38.537Z,100350.16
2022-08-17T08:10:09.955Z,100350.88
2022-08-17T08:12:45.311Z,100361.00
2022-08-17T08:15:33.484Z,100355.66
2022-08-17T08:18:04.528Z,100368.09
2022-08-17T08:20:51.949Z,100365.34
2022-08-17T08:23:33.717Z,100361.69
2022-08-17T08:26:20.438Z,100351.09
2022-08-17T08:29:11.789Z,100345.22
2022-08-17T08:32:21.811Z,100347.63
2022-08-17T08:35:15.532Z,100357.38
2022-08-17T08:37:54.198Z,100365.25
2022-08-17T08:40:51.187Z,100347.84
2022-08-17T08:43:37.765Z,100353.13
2022-08-17T08:46:05.985Z,100358.44
2022-08-17T08:49:00.863Z,100358.00
2022-08-17T08:51:43.546Z,100370.69
2022-08-17T08:54:37.797Z,100363.13
2022-08-17T08:57:24.254Z,100348.22
2022-08-17T09:00:26.219Z,100337.69
2022-08-17T09:03:06.350Z,100341.22
2022-08-17T09:06:03.772Z,100355.78
2022-08-17T09:08:54.010Z,100361.09
2022-08-17T09:11:35.635Z,100355.59
2022-08-17T09:14:46.619Z,100361.78
2022-08-17T09:17:29.289Z,100353.81
2022-08-17T09:20:04.211Z,100358.13
2022-08-17T09:22:44.110Z,100369.41
2022-08-17T09:25:24.077Z,100352.38
2022-08-17T09:28:05.847Z,100351.53
2022-08-17T09:31:01.445Z,100353.13
2022-08-17T09:33:34.027Z,100349.19
2022-08-17T09:36:11.336Z,100357.50
2022-08-17T09:38:57.655Z,100362.00
2022-08-17T09:41:48.898Z,100351.50
2022-08-17T09:44:51.977Z,100357.50
2022-08-17T09:47:26.122Z,100353.06
2022-08-17T09:50:03.550Z,100347.88
2022-08-17T09:52:32.422Z,100350.81
2022-08-17T09:55:01.843Z,100354.56
2022-08-17T09:57:39.609Z,100349.41
2022-08-17T10:00:18.995Z,100360.53
2022-08-17T10:02:58.960Z,100349.06
2022-08-17T10:05:56.696Z,100351.88
2022-08-17T10:09:08.249Z,100349.59
2022-08-17T10:12:03.457Z,100355.34
2022-08-17T10:14:53.388Z,100351.56
2022-08-17T10:17:47.562Z,100350.31
2022-08-17T10:20:28.127Z,100340.81
2022-08-17T10:23:43.432Z,100346.13
2022-08-17T10:26:24.871Z,100348.72
2022-08-17T10:29:00.479Z,100352.19
2022-08-17T10:31:40.838Z,100355.47
2022-08-17T10:34:49.108Z,100364.91
2022-08-17T10:37:37.088Z,100362.41
2022-08-17T10:40:51.766Z,100366.13
2022-08-17T10:43:44.719Z,100364.75
2022-08-17T10:47:06.151Z,100371.75
2022-08-17T10:49:47.496Z,100372.19
2022-08-17T10:52:27.375Z,100374.22
2022-08-17T10:54:58.574Z,100379.69
2022-08-17T10:57:35.098Z,100374.06
2022-08-17T11:00:18.074Z,100361.78
2022-08-17T11:02:53.692Z,100365.03
2022-08-17T11:05:43.453Z,100366.88
2022-08-17T11:08:42.406Z,100370.59
2022-08-17T11:11:35.782Z,100365.50
2022-08-17T11:14:36.229Z,100363.22
2022-08-17T11:17:14.666Z,100357.34
2022-08-17T11:20:06.982Z,100355.69
2022-08-17T11:23:07.479Z,100344.50
2022-08-17T11:25:48.364Z,100347.06
2022-08-17T11:28:48.777Z,100341.75
2022-08-17T11:31:41.583Z,100345.22
2022-08-17T11:34:26.449Z,100342.00
2022-08-17T11:37:06.516Z,100338.66
2022-08-17T11:40:06.864Z,100331.88
2022-08-17T11:43:16.493Z,100330.31
2022-08-17T11:45:50.564Z,100328.19
2022-08-17T11:49:16.925Z,100318.88
2022-08-17T11:52:07.980Z,100317.03
2022-08-17T11:54:46.550Z,100310.91
2022-08-17T11:57:26.414Z,100311.56
2022-08-17T12:00:11.863Z,100314.84
2022-08-17T12:02:48.809Z,100306.47
2022-08-17T12:05:17.315Z,100310.63
2022-08-17T12:07:49.383Z,100299.47
2022-08-17T12:10:21.665Z,100304.16
2022-08-17T12:12:54.661Z,100310.63
2022-08-17T12:15:28.883Z,100310.41
2022-08-17T12:17:59.044Z,100322.00
2022-08-17T12:20:35.677Z,100322.28
2022-08-17T12:23:24.189Z,100324.00
2022-08-17T12:26:09.042Z,100330.03
2022-08-17T12:28:44.085Z,100323.75
2022-08-17T12:31:34.522Z,100330.00
2022-08-17T12:34:05.015Z,100331.13
2022-08-17T12:36:34.070Z,100341.28
2022-08-17T12:39:14.353Z,100343.78
2022-08-17T12:41:46.981Z,100337.00
2022-08-17T12:44:19.783Z,100335.63
2022-08-17T12:47:07.597Z,100335.22
2022-08-17T12:49:42.244Z,100338.06
2022-08-17T12:52:19.312Z,100342.47
2022-08-17T12:54:53.696Z,100322.41
2022-08-17T12:57:27.031Z,100309.88
2022-08-17T12:59:59.306Z,100315.78
2022-08-17T13:02:45.199Z,100322.88
2022-08-17T13:05:19.088Z,100322.25
2022-08-17T13:07:47.650Z,100324.63
2022-08-17T13:10:26.337Z,100323.84
2022-08-17T13:12:58.029Z,100329.59
2022-08-17T13:15:44.904Z,100323.34
2022-08-17T13:18:38.906Z,100331.19
2022-08-17T13:21:18.832Z,100331.91
2022-08-17T13:24:11.111Z,100331.56
2022-08-17T13:26:54.434Z,100328.19
2022-08-17T13:29:32.483Z,100328.03
2022-08-17T13:32:13.178Z,100324.53
2022-08-17T13:35:07.752Z,100334.63
2022-08-17T13:37:36.885Z,100342.16
2022-08-17T13:40:07.933Z,100333.44
2022-08-17T13:42:55.536Z,100338.28
2022-08-17T13:45:39.019Z,100336.81
2022-08-17T13:48:23.641Z,100330.78
2022-08-17T13:50:57.717Z,100342.69
2022-08-17T13:53:33.130Z,100334.56
2022-08-17T13:56:38.796Z,100332.22
2022-08-17T13:59:53.106Z,100316.28
2022-08-17T14:02:27.764Z,100313.97
2022-08-17T14:04:58.570Z,100317.47
2022-08-17T14:07:34.458Z,100309.03
2022-08-17T14:10:09.776Z,100297.75
2022-08-17T14:12:40.567Z,100293.69
2022-08-17T14:15:10.258Z,100296.84
2022-08-17T14:17:39.344Z,100290.09
2022-08-17T14:20:10.988Z,100273.31
2022-08-17T14:22:43.943Z,100267.06
2022-08-17T14:25:13.950Z,100263.19
2022-08-17T14:27:52.307Z,100270.75
2022-08-17T14:30:25.156Z,100257.81
2022-08-17T14:32:54.217Z,100251.72
2022-08-17T14:35:23.982Z,100257.16
2022-08-17T14:37:53.399Z,100253.47
2022-08-17T14:40:24.936Z,100258.94
2022-08-17T14:42:55.417Z,100252.97
2022-08-17T14:45:30.100Z,100259.75
2022-08-17T14:48:07.797Z,100272.22
2022-08-17T14:50:38.708Z,100269.00
2022-08-17T14:53:09.909Z,100254.69
2022-08-17T14:55:40.590Z,100233.59
2022-08-17T14:58:09.580Z,100212.00
2022-08-17T15:00:38.915Z,100199.06
2022-08-17T15:03:07.167Z,100210.38
2022-08-17T15:05:40.374Z,100217.16
2022-08-17T15:08:08.805Z,100212.03
2022-08-17T15:10:39.939Z,100205.25
2022-08-17T15:13:27.011Z,100205.25
2022-08-17T15:15:55.593Z,100200.09
2022-08-17T15:18:24.981Z,100196.81
2022-08-17T15:20:53.478Z,100201.13
2022-08-17T15:23:24.290Z,100200.06
2022-08-17T15:25:54.846Z,100191.94
2022-08-17T15:28:23.187Z,100179.28
2022-08-17T15:30:53.230Z,100173.38
2022-08-17T15:33:29.191Z,100172.00
2022-08-17T15:36:00.982Z,100175.50
2022-08-17T15:38:35.300Z,100175.00
2022-08-17T15:41:05.903Z,100174.19
2022-08-17T15:43:37.221Z,100182.28
2022-08-17T15:46:35.501Z,100188.50
2022-08-17T15:49:04.922Z,100187.72
2022-08-17T15:51:35.379Z,100182.84
2022-08-17T15:54:19.325Z,100186.34
2022-08-17T15:56:51.345Z,100182.56
2022-08-17T15:59:19.579Z,100187.97
2022-08-17T16:03:13.968Z,100190.41
2022-08-17T16:04:36.659Z,100192.56
2022-08-17T16:07:11.436Z,100204.72
2022-08-17T16:09:39.685Z,100208.78
2022-08-17T16:12:19.671Z,100219.03
2022-08-17T16:14:49.619Z,100223.63
2022-08-17T16:17:38.762Z,100237.13
2022-08-17T16:20:06.666Z,100236.56
2022-08-17T16:22:42.440Z,100227.66
2022-08-17T16:25:47.218Z,100232.47
2022-08-17T16:28:19.783Z,100225.72
2022-08-17T16:30:48.021Z,100212.22
2022-08-17T16:33:16.992Z,100199.50
2022-08-17T16:35:45.194Z,100205.97
2022-08-17T16:38:13.301Z,100187.63
2022-08-17T16:40:42.390Z,100172.50
2022-08-17T16:43:12.003Z,100167.81
2022-08-17T16:45:40.890Z,100166.44
2022-08-17T16:48:10.059Z,100163.72
2022-08-17T16:50:38.326Z,100162.09
2022-08-17T16:53:17.238Z,100156.16
2022-08-17T16:55:47.179Z,100147.50
2022-08-17T16:58:16.015Z,100156.91
2022-08-17T17:00:48.710Z,100146.84
2022-08-17T17:03:20.684Z,100148.97
2022-08-17T17:06:13.638Z,100148.41
2022-08-17T17:08:48.464Z,100151.56
2022-08-17T17:11:22.854Z,100160.44
2022-08-17T17:14:01.491Z,100174.09
2022-08-17T17:16:29.685Z,100179.44
2022-08-17T17:19:11.943Z,100184.25
2022-08-17T17:21:52.407Z,100208.41
2022-08-17T17:24:49.997Z,100199.25
2022-08-17T17:27:23.986Z,100188.22
2022-08-17T17:30:18.022Z,100184.84
2022-08-17T17:32:51.418Z,100186.91
2022-08-17T17:35:31.692Z,100183.06
2022-08-17T17:38:12.757Z,100187.84
2022-08-17T17:40:45.346Z,100196.13
2022-08-17T17:43:37.650Z,100208.16
2022-08-17T17:46:39.917Z,100198.25
2022-08-17T17:49:11.262Z,100206.97
2022-08-17T17:52:03.658Z,100216.22
2022-08-17T17:54:55.391Z,100223.78
2022-08-17T17:57:58.502Z,100226.72
2022-08-17T18:00:39.299Z,100263.88
2022-08-17T18:03:20.512Z,100268.72
2022-08-17T18:06:10.339Z,100262.88
2022-08-17T18:08:43.198Z,100231.69
2022-08-17T18:11:25.906Z,100255.47
2022-08-17T18:14:06.030Z,100288.41
2022-08-17T18:16:35.782Z,100335.50
2022-08-17T18:19:03.954Z,100357.63
2022-08-17T18:21:39.975Z,100346.81
2022-08-17T18:24:10.563Z,100328.44
2022-08-17T18:26:57.670Z,100313.88
2022-08-17T18:29:31.707Z,100336.00
2022-08-17T18:32:27.507Z,100345.34
2022-08-17T18:35:21.441Z,100342.38
2022-08-17T18:37:53.204Z,100349.44
2022-08-17T18:40:28.158Z,100363.59
2022-08-17T18:43:13.428Z,100354.03
2022-08-17T18:45:50.420Z,100356.97
2022-08-17T18:48:24.387Z,100365.69
2022-08-17T18:51:00.390Z,100370.44
2022-08-17T18:53:36.783Z,100356.88
2022-08-17T18:56:30.455Z,100375.94
2022-08-17T18:59:23.962Z,100385.53
2022-08-17T19:02:44.625Z,100370.78
2022-08-17T19:05:36.689Z,100374.41
2022-08-17T19:08:28.746Z,100370.34
2022-08-17T19:11:08.562Z,100361.06
2022-08-17T19:13:45.779Z,100367.19
2022-08-17T19:16:34.821Z,100379.28
2022-08-17T19:19:17.011Z,100381.91
2022-08-17T19:22:06.889Z,100378.25
2022-08-17T19:24:37.557Z,100358.53
2022-08-17T19:27:25.031Z,100382.13
2022-08-17T19:30:08.551Z,100386.75
2022-08-17T19:32:38.462Z,100380.81
2022-08-17T19:35:13.602Z,100366.25
2022-08-17T19:37:56.709Z,100348.06
2022-08-17T19:40:53.184Z,100342.94
2022-08-17T19:43:40.833Z,100350.72
2022-08-17T19:46:35.841Z,100347.03
2022-08-17T19:49:15.408Z,100357.28
2022-08-17T19:52:24.522Z,100349.81
2022-08-17T19:55:02.362Z,100342.88
2022-08-17T19:58:06.916Z,100331.88
2022-08-17T20:00:42.540Z,100336.84
2022-08-17T20:03:35.593Z,100338.28
2022-08-17T20:06:14.785Z,100329.50
2022-08-17T20:09:16.370Z,100329.31
2022-08-17T20:11:54.840Z,100332.41
2022-08-17T20:14:32.708Z,100343.59
2022-08-17T20:17:02.898Z,100342.16
2022-08-17T20:19:55.555Z,100340.38
2022-08-17T20:22:29.797Z,100332.41
2022-08-17T20:25:30.263Z,100336.31
2022-08-17T20:28:30.491Z,100345.31
2022-08-17T20:30:59.625Z,100339.16
2022-08-17T20:33:38.303Z,100338.34
2022-08-17T20:36:20.675Z,100342.84
2022-08-17T20:38:58.154Z,100347.56
2022-08-17T20:41:29.644Z,100350.00
2022-08-17T20:43:58.517Z,100359.47
2022-08-17T20:46:38.836Z,100365.03
2022-08-17T20:49:16.418Z,100376.50
2022-08-17T20:52:10.511Z,100388.81
2022-08-17T20:54:51.751Z,100389.22
2022-08-17T20:57:32.156Z,100384.31
2022-08-17T21:00:06.551Z,100383.06
2022-08-17T21:02:37.104Z,100379.56
2022-08-17T21:05:27.637Z,100386.38
2022-08-17T21:08:17.001Z,100379.84
2022-08-17T21:10:47.090Z,100373.50
2022-08-17T21:13:15.653Z,100371.66
2022-08-17T21:15:56.773Z,100373.13
2022-08-17T21:18:38.143Z,100361.50
2022-08-17T21:21:12.105Z,100349.63
2022-08-17T21:23:52.464Z,100352.91
2022-08-17T21:26:50.483Z,100347.56
2022-08-17T21:29:32.465Z,100341.88
2022-08-17T21:32:05.548Z,100353.34
2022-08-17T21:35:05.713Z,100353.31
2022-08-17T21:37:44.368Z,100354.16
2022-08-17T21:40:18.484Z,100368.72
2022-08-17T21:42:53.964Z,100366.31
2022-08-17T21:45:22.257Z,100363.69
2022-08-17T21:48:11.172Z,100354.00
2022-08-17T21:50:44.241Z,100371.44
2022-08-17T21:53:32.765Z,100362.00
2022-08-17T21:56:01.651Z,100351.56
2022-08-17T21:58:36.674Z,100359.59
2022-08-17T22:01:10.719Z,100351.59
2022-08-17T22:03:39.049Z,100355.69
2022-08-17T22:06:29.251Z,100359.97
2022-08-17T22:08:59.777Z,100362.66
2022-08-17T22:11:28.469Z,100359.97
2022-08-17T22:14:05.291Z,100365.94
2022-08-17T22:16:34.860Z,100362.44
2022-08-17T22:19:05.187Z,100373.34
2022-08-17T22:21:33.409Z,100371.91
2022-08-17T22:24:05.829Z,100376.84
2022-08-17T22:27:05.887Z,100364.75
2022-08-17T22:29:54.255Z,100368.63
2022-08-17T22:32:47.090Z,100359.75
2022-08-17T22:35:37.728Z,100346.44
2022-08-17T22:38:21.202Z,100345.00
2022-08-17T22:41:13.828Z,100346.22
2022-08-17T22:43:43.747Z,100342.53
2022-08-17T22:46:14.982Z,100340.28
2022-08-17T22:49:00.901Z,100339.03
2022-08-17T22:51:31.325Z,100336.59
2022-08-17T22:54:31.591Z,100330.28
2022-08-17T22:57:21.680Z,100331.09
2022-08-17T22:59:54.163Z,100328.03
2022-08-17T23:02:33.972Z,100318.22
2022-08-17T23:05:13.885Z,100309.81
2022-08-17T23:07:43.809Z,100310.25
2022-08-17T23:10:13.304Z,100310.84
2022-08-17T23:12:41.872Z,100309.59
2022-08-17T23:15:17.473Z,100302.63
2022-08-17T23:17:46.361Z,100308.97
2022-08-17T23:20:16.437Z,100301.78
2022-08-17T23:22:52.577Z,100300.75
2022-08-17T23:25:34.732Z,100288.25
2022-08-17T23:28:05.362Z,100285.00
2022-08-17T23:30:39.253Z,100274.16
2022-08-17T23:33:14.714Z,100271.09
2022-08-17T23:35:44.003Z,100271.53
2022-08-17T23:38:13.720Z,100267.41
2022-08-17T23:40:41.909Z,100264.34
2022-08-17T23:43:25.563Z,100263.72
2022-08-17T23:45:58.559Z,100258.41
2022-08-17T23:48:36.159Z,100258.81
2022-08-17T23:51:12.356Z,100257.44
2022-08-17T23:53:46.324Z,100251.69
2022-08-17T23:56:15.342Z,100239.81
2022-08-17T23:58:44.965Z,100233.28
